sensor_id;sensor_type;location;lat;lon;timestamp;pressure;altitude;pressure_sealevel;temperature;humidity
23361;BME280;11852;50.082;18.554;2022-11-15T00:00:16;98911.0;;;5.12;86.18
23361;BME280;11852;50.082;18.554;2022-11-15T00:01:20;98913.0;;;5.07;86.41
23361;BME280;11852;50.082;18.554;2022-11-15T00:02:25;98909.0;;;5.03;86.44
23361;BME280;11852;50.082;18.554;2022-11-15T00:03:30;98911.5;;;5.07;86.3
23361;BME280;11852;50.082;18.554;2022-11-15T00:04:34;98910.5;;;5.09;86.33
23361;BME280;11852;50.082;18.554;2022-11-15T00:05:39;98907.5;;;4.95;86.58
23361;BME280;11852;50.082;18.554;2022-11-15T00:06:43;98906.0;;;4.93;86.51
23361;BME280;11852;50.082;18.554;2022-11-15T00:07:48;98905.0;;;4.9;86.52
23361;BME280;11852;50.082;18.554;2022-11-15T00:08:53;98903.5;;;4.9;86.47
23361;BME280;11852;50.082;18.554;2022-11-15T00:09:57;98905.5;;;4.93;86.43
23361;BME280;11852;50.082;18.554;2022-11-15T00:11:02;98900.0;;;4.85;86.71
23361;BME280;11852;50.082;18.554;2022-11-15T00:12:06;98902.0;;;4.82;86.77
23361;BME280;11852;50.082;18.554;2022-11-15T00:13:12;98902.0;;;4.85;86.61
23361;BME280;11852;50.082;18.554;2022-11-15T00:14:15;98899.5;;;4.84;86.57
23361;BME280;11852;50.082;18.554;2022-11-15T00:15:20;98901.0;;;4.82;86.7
23361;BME280;11852;50.082;18.554;2022-11-15T00:16:25;98900.0;;;4.84;86.6
23361;BME280;11852;50.082;18.554;2022-11-15T00:17:29;98900.5;;;4.86;86.58
23361;BME280;11852;50.082;18.554;2022-11-15T00:18:34;98899.0;;;4.9;86.57
23361;BME280;11852;50.082;18.554;2022-11-15T00:19:39;98900.5;;;4.9;86.51
23361;BME280;11852;50.082;18.554;2022-11-15T00:20:44;98899.5;;;4.97;86.51
23361;BME280;11852;50.082;18.554;2022-11-15T00:21:48;98900.0;;;4.96;86.54
23361;BME280;11852;50.082;18.554;2022-11-15T00:22:52;98900.0;;;4.91;86.6
23361;BME280;11852;50.082;18.554;2022-11-15T00:23:58;98901.5;;;4.95;86.46
23361;BME280;11852;50.082;18.554;2022-11-15T00:25:02;98898.0;;;4.98;86.44
23361;BME280;11852;50.082;18.554;2022-11-15T00:26:07;98897.5;;;4.97;86.49
23361;BME280;11852;50.082;18.554;2022-11-15T00:27:11;98898.0;;;4.95;86.42
23361;BME280;11852;50.082;18.554;2022-11-15T00:28:15;98897.5;;;4.98;86.39
23361;BME280;11852;50.082;18.554;2022-11-15T00:29:20;98895.49;;;4.93;86.54
23361;BME280;11852;50.082;18.554;2022-11-15T00:30:25;98892.5;;;4.83;86.64
23361;BME280;11852;50.082;18.554;2022-11-15T00:31:29;98888.5;;;4.8;86.61
23361;BME280;11852;50.082;18.554;2022-11-15T00:32:34;98884.0;;;4.85;86.46
23361;BME280;11852;50.082;18.554;2022-11-15T00:33:38;98882.0;;;4.76;86.67
23361;BME280;11852;50.082;18.554;2022-11-15T00:34:43;98881.5;;;4.76;86.56
23361;BME280;11852;50.082;18.554;2022-11-15T00:35:47;98879.0;;;4.72;86.6
23361;BME280;11852;50.082;18.554;2022-11-15T00:36:52;98875.0;;;4.72;86.69
23361;BME280;11852;50.082;18.554;2022-11-15T00:37:56;98872.0;;;4.7;86.65
23361;BME280;11852;50.082;18.554;2022-11-15T00:39:03;98871.0;;;4.66;86.7
23361;BME280;11852;50.082;18.554;2022-11-15T00:40:06;98874.0;;;4.66;86.7
23361;BME280;11852;50.082;18.554;2022-11-15T00:41:10;98873.5;;;4.58;86.85
23361;BME280;11852;50.082;18.554;2022-11-15T00:42:14;98872.5;;;4.57;86.79
23361;BME280;11852;50.082;18.554;2022-11-15T00:43:19;98872.0;;;4.57;86.8
23361;BME280;11852;50.082;18.554;2022-11-15T00:44:23;98873.5;;;4.61;86.67
23361;BME280;11852;50.082;18.554;2022-11-15T00:45:28;98870.5;;;4.52;86.96
23361;BME280;11852;50.082;18.554;2022-11-15T00:46:33;98869.0;;;4.53;86.85
23361;BME280;11852;50.082;18.554;2022-11-15T00:47:37;98862.5;;;4.49;86.88
23361;BME280;11852;50.082;18.554;2022-11-15T00:48:42;98864.0;;;4.51;86.84
23361;BME280;11852;50.082;18.554;2022-11-15T00:49:46;98862.0;;;4.47;86.99
23361;BME280;11852;50.082;18.554;2022-11-15T00:50:51;98860.0;;;4.53;86.81
23361;BME280;11852;50.082;18.554;2022-11-15T00:51:56;98861.5;;;4.48;86.99
23361;BME280;11852;50.082;18.554;2022-11-15T00:53:00;98859.0;;;4.52;86.81
23361;BME280;11852;50.082;18.554;2022-11-15T00:54:05;98859.0;;;4.53;86.87
23361;BME280;11852;50.082;18.554;2022-11-15T00:55:19;98858.5;;;4.53;86.77
23361;BME280;11852;50.082;18.554;2022-11-15T00:56:14;98859.0;;;4.51;86.88
23361;BME280;11852;50.082;18.554;2022-11-15T00:57:19;98856.5;;;4.49;86.91
23361;BME280;11852;50.082;18.554;2022-11-15T00:58:23;98856.0;;;4.51;86.71
23361;BME280;11852;50.082;18.554;2022-11-15T00:59:28;98855.01;;;4.49;86.75
23361;BME280;11852;50.082;18.554;2022-11-15T01:00:32;98852.5;;;4.52;86.65
23361;BME280;11852;50.082;18.554;2022-11-15T01:01:37;98851.5;;;4.49;86.69
23361;BME280;11852;50.082;18.554;2022-11-15T01:02:42;98849.5;;;4.51;86.65
23361;BME280;11852;50.082;18.554;2022-11-15T01:03:46;98847.5;;;4.5;86.63
23361;BME280;11852;50.082;18.554;2022-11-15T01:04:51;98844.5;;;4.41;86.81
23361;BME280;11852;50.082;18.554;2022-11-15T01:05:58;98840.5;;;4.38;86.79
23361;BME280;11852;50.082;18.554;2022-11-15T01:07:00;98839.0;;;4.38;86.69
23361;BME280;11852;50.082;18.554;2022-11-15T01:08:04;98837.5;;;4.38;86.65
23361;BME280;11852;50.082;18.554;2022-11-15T01:09:09;98834.0;;;4.29;86.88
23361;BME280;11852;50.082;18.554;2022-11-15T01:10:14;98835.0;;;4.34;86.67
23361;BME280;11852;50.082;18.554;2022-11-15T01:11:18;98835.0;;;4.37;86.57
23361;BME280;11852;50.082;18.554;2022-11-15T01:12:23;98837.0;;;4.39;86.55
23361;BME280;11852;50.082;18.554;2022-11-15T01:13:29;98835.5;;;4.39;86.6
23361;BME280;11852;50.082;18.554;2022-11-15T01:14:32;98837.0;;;4.41;86.48
23361;BME280;11852;50.082;18.554;2022-11-15T01:15:40;98837.0;;;4.45;86.52
23361;BME280;11852;50.082;18.554;2022-11-15T01:16:44;98836.5;;;4.49;86.46
23361;BME280;11852;50.082;18.554;2022-11-15T01:17:48;98833.5;;;4.5;86.4
23361;BME280;11852;50.082;18.554;2022-11-15T01:18:53;98836.0;;;4.51;86.35
23361;BME280;11852;50.082;18.554;2022-11-15T01:19:58;98834.5;;;4.51;86.29
23361;BME280;11852;50.082;18.554;2022-11-15T01:21:08;98837.0;;;4.46;86.22
23361;BME280;11852;50.082;18.554;2022-11-15T01:22:12;98837.5;;;4.47;86.21
23361;BME280;11852;50.082;18.554;2022-11-15T01:23:16;98839.5;;;4.53;86.16
23361;BME280;11852;50.082;18.554;2022-11-15T01:24:21;98837.5;;;4.56;86.19
23361;BME280;11852;50.082;18.554;2022-11-15T01:25:26;98838.5;;;4.59;86.18
23361;BME280;11852;50.082;18.554;2022-11-15T01:26:30;98835.0;;;4.6;86.15
23361;BME280;11852;50.082;18.554;2022-11-15T01:27:35;98839.0;;;4.63;86.04
23361;BME280;11852;50.082;18.554;2022-11-15T01:28:40;98835.0;;;4.64;86.04
23361;BME280;11852;50.082;18.554;2022-11-15T01:29:44;98835.5;;;4.61;85.92
23361;BME280;11852;50.082;18.554;2022-11-15T01:30:48;98830.5;;;4.6;85.85
23361;BME280;11852;50.082;18.554;2022-11-15T01:31:53;98832.5;;;4.56;85.91
23361;BME280;11852;50.082;18.554;2022-11-15T01:32:58;98831.0;;;4.56;85.81
23361;BME280;11852;50.082;18.554;2022-11-15T01:34:02;98829.51;;;4.57;85.82
23361;BME280;11852;50.082;18.554;2022-11-15T01:35:07;98828.0;;;4.55;85.88
23361;BME280;11852;50.082;18.554;2022-11-15T01:36:13;98824.0;;;4.53;85.77
23361;BME280;11852;50.082;18.554;2022-11-15T01:37:16;98823.5;;;4.49;85.84
23361;BME280;11852;50.082;18.554;2022-11-15T01:38:21;98819.99;;;4.49;85.73
23361;BME280;11852;50.082;18.554;2022-11-15T01:39:25;98819.99;;;4.49;85.86
23361;BME280;11852;50.082;18.554;2022-11-15T01:40:30;98816.5;;;4.43;86.01
23361;BME280;11852;50.082;18.554;2022-11-15T01:41:34;98817.51;;;4.38;86.07
23361;BME280;11852;50.082;18.554;2022-11-15T01:42:39;98814.5;;;4.39;85.94
23361;BME280;11852;50.082;18.554;2022-11-15T01:43:43;98816.0;;;4.38;86.01
23361;BME280;11852;50.082;18.554;2022-11-15T01:44:49;98815.5;;;4.38;85.97
23361;BME280;11852;50.082;18.554;2022-11-15T01:46:02;98811.5;;;4.36;86.07
23361;BME280;11852;50.082;18.554;2022-11-15T01:47:03;98809.5;;;4.32;86.21
23361;BME280;11852;50.082;18.554;2022-11-15T01:48:07;98809.5;;;4.28;86.22
23361;BME280;11852;50.082;18.554;2022-11-15T01:49:11;98806.99;;;4.26;86.17
23361;BME280;11852;50.082;18.554;2022-11-15T01:50:17;98805.0;;;4.16;86.43
23361;BME280;11852;50.082;18.554;2022-11-15T01:51:21;98805.5;;;4.07;86.44
23361;BME280;11852;50.082;18.554;2022-11-15T01:52:26;98806.0;;;4.05;86.44
23361;BME280;11852;50.082;18.554;2022-11-15T01:53:30;98804.5;;;3.95;86.72
23361;BME280;11852;50.082;18.554;2022-11-15T01:54:34;98803.5;;;3.93;86.76
23361;BME280;11852;50.082;18.554;2022-11-15T01:55:39;98801.5;;;3.93;86.71
23361;BME280;11852;50.082;18.554;2022-11-15T01:56:45;98799.5;;;3.95;86.71
23361;BME280;11852;50.082;18.554;2022-11-15T01:57:49;98795.0;;;3.94;86.67
23361;BME280;11852;50.082;18.554;2022-11-15T01:58:52;98796.5;;;3.93;86.8
23361;BME280;11852;50.082;18.554;2022-11-15T01:59:57;98794.0;;;3.91;86.78
23361;BME280;11852;50.082;18.554;2022-11-15T02:01:01;98794.5;;;3.9;86.76
23361;BME280;11852;50.082;18.554;2022-11-15T02:02:06;98797.5;;;3.98;86.5
23361;BME280;11852;50.082;18.554;2022-11-15T02:03:10;98793.0;;;3.95;86.62
23361;BME280;11852;50.082;18.554;2022-11-15T02:05:27;98794.5;;;4.03;86.35
23361;BME280;11852;50.082;18.554;2022-11-15T02:06:32;98795.0;;;4.0;86.43
23361;BME280;11852;50.082;18.554;2022-11-15T02:07:36;98794.0;;;4.06;86.4
23361;BME280;11852;50.082;18.554;2022-11-15T02:08:41;98791.5;;;4.08;86.29
23361;BME280;11852;50.082;18.554;2022-11-15T02:09:46;98787.5;;;4.09;86.1
23361;BME280;11852;50.082;18.554;2022-11-15T02:10:50;98788.0;;;4.12;86.01
23361;BME280;11852;50.082;18.554;2022-11-15T02:11:55;98784.5;;;4.11;85.94
23361;BME280;11852;50.082;18.554;2022-11-15T02:12:59;98786.0;;;4.11;85.99
23361;BME280;11852;50.082;18.554;2022-11-15T02:14:04;98782.5;;;4.14;85.94
23361;BME280;11852;50.082;18.554;2022-11-15T02:15:09;98780.0;;;4.18;85.9
23361;BME280;11852;50.082;18.554;2022-11-15T02:18:34;98770.5;;;4.22;85.75
23361;BME280;11852;50.082;18.554;2022-11-15T02:19:47;98772.0;;;4.22;85.65
23361;BME280;11852;50.082;18.554;2022-11-15T02:24:34;98768.0;;;4.21;85.39
23361;BME280;11852;50.082;18.554;2022-11-15T02:25:40;98766.0;;;4.19;85.5
23361;BME280;11852;50.082;18.554;2022-11-15T02:29:15;98768.5;;;4.16;85.29
23361;BME280;11852;50.082;18.554;2022-11-15T02:37:42;98772.0;;;4.11;85.39
23361;BME280;11852;50.082;18.554;2022-11-15T02:41:15;98770.49;;;3.99;85.18
23361;BME280;11852;50.082;18.554;2022-11-15T02:42:26;98766.5;;;3.98;85.31
23361;BME280;11852;50.082;18.554;2022-11-15T02:43:36;98767.51;;;3.98;85.24
23361;BME280;11852;50.082;18.554;2022-11-15T02:44:41;98765.5;;;4.0;85.37
23361;BME280;11852;50.082;18.554;2022-11-15T02:45:46;98761.0;;;4.01;85.46
23361;BME280;11852;50.082;18.554;2022-11-15T02:46:54;98762.5;;;4.01;85.43
23361;BME280;11852;50.082;18.554;2022-11-15T02:47:58;98762.5;;;3.98;85.32
23361;BME280;11852;50.082;18.554;2022-11-15T02:49:03;98758.0;;;4.03;85.32
23361;BME280;11852;50.082;18.554;2022-11-15T02:50:08;98757.99;;;3.91;85.3
23361;BME280;11852;50.082;18.554;2022-11-15T02:51:12;98756.49;;;3.84;85.46
23361;BME280;11852;50.082;18.554;2022-11-15T02:52:18;98755.01;;;3.86;85.49
23361;BME280;11852;50.082;18.554;2022-11-15T02:53:25;98752.0;;;3.87;85.42
23361;BME280;11852;50.082;18.554;2022-11-15T02:54:30;98749.5;;;3.83;85.54
23361;BME280;11852;50.082;18.554;2022-11-15T02:55:34;98750.5;;;3.77;85.6
23361;BME280;11852;50.082;18.554;2022-11-15T02:56:38;98748.5;;;3.76;85.64
23361;BME280;11852;50.082;18.554;2022-11-15T02:57:51;98746.5;;;3.76;85.59
23361;BME280;11852;50.082;18.554;2022-11-15T03:09:37;98730.0;;;3.52;86.49
23361;BME280;11852;50.082;18.554;2022-11-15T03:11:54;98729.0;;;3.53;86.65
23361;BME280;11852;50.082;18.554;2022-11-15T03:12:57;98726.5;;;3.57;86.56
23361;BME280;11852;50.082;18.554;2022-11-15T03:15:17;98725.5;;;3.59;86.44
23361;BME280;11852;50.082;18.554;2022-11-15T03:16:24;98724.0;;;3.61;86.42
23361;BME280;11852;50.082;18.554;2022-11-15T03:18:43;98721.0;;;3.64;86.26
23361;BME280;11852;50.082;18.554;2022-11-15T03:19:47;98721.0;;;3.68;86.27
23361;BME280;11852;50.082;18.554;2022-11-15T03:20:51;98719.0;;;3.7;86.28
23361;BME280;11852;50.082;18.554;2022-11-15T03:21:55;98719.49;;;3.73;86.08
23361;BME280;11852;50.082;18.554;2022-11-15T03:23:01;98716.0;;;3.72;86.17
23361;BME280;11852;50.082;18.554;2022-11-15T03:24:05;98717.51;;;3.75;86.01
23361;BME280;11852;50.082;18.554;2022-11-15T03:25:10;98716.0;;;3.74;86.08
23361;BME280;11852;50.082;18.554;2022-11-15T03:26:14;98719.5;;;3.74;86.01
23361;BME280;11852;50.082;18.554;2022-11-15T03:27:19;98719.0;;;3.77;85.9
23361;BME280;11852;50.082;18.554;2022-11-15T03:28:24;98721.5;;;3.83;85.76
23361;BME280;11852;50.082;18.554;2022-11-15T03:29:28;98722.5;;;3.82;85.85
23361;BME280;11852;50.082;18.554;2022-11-15T03:30:32;98721.0;;;3.83;85.66
23361;BME280;11852;50.082;18.554;2022-11-15T03:31:44;98717.01;;;3.88;85.62
23361;BME280;11852;50.082;18.554;2022-11-15T03:32:49;98712.0;;;3.88;85.57
23361;BME280;11852;50.082;18.554;2022-11-15T03:33:51;98712.0;;;3.89;85.53
23361;BME280;11852;50.082;18.554;2022-11-15T03:35:00;98709.5;;;3.89;85.49
23361;BME280;11852;50.082;18.554;2022-11-15T03:36:03;98713.5;;;3.89;85.37
23361;BME280;11852;50.082;18.554;2022-11-15T03:37:07;98712.0;;;3.88;85.38
23361;BME280;11852;50.082;18.554;2022-11-15T03:39:24;98703.0;;;3.88;85.37
23361;BME280;11852;50.082;18.554;2022-11-15T03:41:46;98702.0;;;3.88;85.32
23361;BME280;11852;50.082;18.554;2022-11-15T03:42:59;98695.0;;;3.92;85.29
23361;BME280;11852;50.082;18.554;2022-11-15T03:45:25;98690.5;;;3.88;85.27
23361;BME280;11852;50.082;18.554;2022-11-15T03:47:38;98690.0;;;3.83;85.35
23361;BME280;11852;50.082;18.554;2022-11-15T03:48:41;98692.01;;;3.79;85.35
23361;BME280;11852;50.082;18.554;2022-11-15T03:49:45;98690.5;;;3.76;85.43
23361;BME280;11852;50.082;18.554;2022-11-15T03:50:48;98690.5;;;3.78;85.35
23361;BME280;11852;50.082;18.554;2022-11-15T03:51:53;98689.5;;;3.76;85.36
23361;BME280;11852;50.082;18.554;2022-11-15T03:52:57;98691.0;;;3.74;85.4
23361;BME280;11852;50.082;18.554;2022-11-15T03:54:03;98690.0;;;3.69;85.43
23361;BME280;11852;50.082;18.554;2022-11-15T03:55:09;98692.01;;;3.7;85.38
23361;BME280;11852;50.082;18.554;2022-11-15T03:56:11;98689.0;;;3.68;85.53
23361;BME280;11852;50.082;18.554;2022-11-15T03:57:16;98690.0;;;3.71;85.43
23361;BME280;11852;50.082;18.554;2022-11-15T03:58:20;98687.0;;;3.69;85.55
23361;BME280;11852;50.082;18.554;2022-11-15T03:59:25;98688.5;;;3.7;85.54
23361;BME280;11852;50.082;18.554;2022-11-15T04:00:30;98686.0;;;3.71;85.52
23361;BME280;11852;50.082;18.554;2022-11-15T04:01:34;98685.0;;;3.7;85.6
23361;BME280;11852;50.082;18.554;2022-11-15T04:02:39;98684.5;;;3.72;85.53
23361;BME280;11852;50.082;18.554;2022-11-15T04:03:43;98684.0;;;3.74;85.53
23361;BME280;11852;50.082;18.554;2022-11-15T04:04:48;98681.5;;;3.73;85.54
23361;BME280;11852;50.082;18.554;2022-11-15T04:05:53;98682.5;;;3.72;85.4
23361;BME280;11852;50.082;18.554;2022-11-15T04:06:57;98682.99;;;3.68;85.49
23361;BME280;11852;50.082;18.554;2022-11-15T04:08:02;98684.5;;;3.7;85.47
23361;BME280;11852;50.082;18.554;2022-11-15T04:09:06;98685.0;;;3.7;85.54
23361;BME280;11852;50.082;18.554;2022-11-15T04:10:11;98683.5;;;3.7;85.6
23361;BME280;11852;50.082;18.554;2022-11-15T04:11:16;98681.0;;;3.7;85.58
23361;BME280;11852;50.082;18.554;2022-11-15T04:12:23;98684.0;;;3.66;85.65
23361;BME280;11852;50.082;18.554;2022-11-15T04:13:28;98680.5;;;3.68;85.52
23361;BME280;11852;50.082;18.554;2022-11-15T04:14:32;98681.0;;;3.67;85.53
23361;BME280;11852;50.082;18.554;2022-11-15T04:15:37;98679.51;;;3.7;85.49
23361;BME280;11852;50.082;18.554;2022-11-15T04:16:42;98678.0;;;3.7;85.64
23361;BME280;11852;50.082;18.554;2022-11-15T04:17:50;98681.0;;;3.72;85.49
23361;BME280;11852;50.082;18.554;2022-11-15T04:18:51;98686.0;;;3.72;85.56
23361;BME280;11852;50.082;18.554;2022-11-15T04:20:01;98687.5;;;3.71;85.4
23361;BME280;11852;50.082;18.554;2022-11-15T04:21:10;98689.5;;;3.73;85.54
23361;BME280;11852;50.082;18.554;2022-11-15T04:22:20;98690.5;;;3.75;85.51
23361;BME280;11852;50.082;18.554;2022-11-15T04:23:30;98687.0;;;3.75;85.47
23361;BME280;11852;50.082;18.554;2022-11-15T04:24:34;98686.0;;;3.74;85.51
23361;BME280;11852;50.082;18.554;2022-11-15T04:25:39;98681.99;;;3.74;85.47
23361;BME280;11852;50.082;18.554;2022-11-15T04:26:43;98684.0;;;3.76;85.48
23361;BME280;11852;50.082;18.554;2022-11-15T04:27:48;98680.01;;;3.74;85.57
23361;BME280;11852;50.082;18.554;2022-11-15T04:28:58;98678.5;;;3.77;85.46
23361;BME280;11852;50.082;18.554;2022-11-15T04:30:03;98679.0;;;3.74;85.36
23361;BME280;11852;50.082;18.554;2022-11-15T04:31:07;98674.0;;;3.73;85.32
23361;BME280;11852;50.082;18.554;2022-11-15T04:32:12;98671.0;;;3.74;85.33
23361;BME280;11852;50.082;18.554;2022-11-15T04:33:16;98667.0;;;3.7;85.49
23361;BME280;11852;50.082;18.554;2022-11-15T04:34:21;98666.0;;;3.7;85.37
23361;BME280;11852;50.082;18.554;2022-11-15T04:35:25;98668.01;;;3.68;85.43
23361;BME280;11852;50.082;18.554;2022-11-15T04:36:35;98665.0;;;3.68;85.43
23361;BME280;11852;50.082;18.554;2022-11-15T04:37:40;98664.5;;;3.66;85.51
23361;BME280;11852;50.082;18.554;2022-11-15T04:38:44;98668.51;;;3.64;85.51
23361;BME280;11852;50.082;18.554;2022-11-15T04:39:49;98665.5;;;3.64;85.42
23361;BME280;11852;50.082;18.554;2022-11-15T04:40:53;98665.0;;;3.67;85.47
23361;BME280;11852;50.082;18.554;2022-11-15T04:41:58;98664.0;;;3.68;85.49
23361;BME280;11852;50.082;18.554;2022-11-15T04:43:03;98661.0;;;3.64;85.61
23361;BME280;11852;50.082;18.554;2022-11-15T04:44:07;98660.5;;;3.63;85.54
23361;BME280;11852;50.082;18.554;2022-11-15T04:45:12;98658.5;;;3.64;85.5
23361;BME280;11852;50.082;18.554;2022-11-15T04:46:16;98660.5;;;3.67;85.5
23361;BME280;11852;50.082;18.554;2022-11-15T04:47:22;98661.5;;;3.67;85.47
23361;BME280;11852;50.082;18.554;2022-11-15T04:48:26;98660.5;;;3.66;85.5
23361;BME280;11852;50.082;18.554;2022-11-15T04:49:31;98661.0;;;3.66;85.51
23361;BME280;11852;50.082;18.554;2022-11-15T04:50:36;98660.5;;;3.67;85.51
23361;BME280;11852;50.082;18.554;2022-11-15T04:51:40;98658.0;;;3.69;85.54
23361;BME280;11852;50.082;18.554;2022-11-15T04:52:51;98656.5;;;3.69;85.54
23361;BME280;11852;50.082;18.554;2022-11-15T04:53:55;98656.5;;;3.69;85.45
23361;BME280;11852;50.082;18.554;2022-11-15T04:54:59;98653.5;;;3.68;85.46
23361;BME280;11852;50.082;18.554;2022-11-15T04:56:04;98653.5;;;3.69;85.51
23361;BME280;11852;50.082;18.554;2022-11-15T04:57:09;98655.5;;;3.71;85.5
23361;BME280;11852;50.082;18.554;2022-11-15T04:58:13;98654.0;;;3.69;85.48
23361;BME280;11852;50.082;18.554;2022-11-15T04:59:18;98653.5;;;3.65;85.5
23361;BME280;11852;50.082;18.554;2022-11-15T05:00:22;98650.0;;;3.66;85.42
23361;BME280;11852;50.082;18.554;2022-11-15T05:01:27;98649.5;;;3.6;85.49
23361;BME280;11852;50.082;18.554;2022-11-15T05:02:37;98648.0;;;3.56;85.45
23361;BME280;11852;50.082;18.554;2022-11-15T05:03:47;98645.49;;;3.58;85.44
23361;BME280;11852;50.082;18.554;2022-11-15T05:04:51;98645.0;;;3.54;85.62
23361;BME280;11852;50.082;18.554;2022-11-15T05:05:57;98645.49;;;3.54;85.57
23361;BME280;11852;50.082;18.554;2022-11-15T05:07:01;98643.01;;;3.5;85.56
23361;BME280;11852;50.082;18.554;2022-11-15T05:08:05;98642.01;;;3.49;85.58
23361;BME280;11852;50.082;18.554;2022-11-15T05:09:10;98641.5;;;3.49;85.63
23361;BME280;11852;50.082;18.554;2022-11-15T05:10:14;98639.5;;;3.47;85.78
23361;BME280;11852;50.082;18.554;2022-11-15T05:11:19;98638.5;;;3.49;85.71
23361;BME280;11852;50.082;18.554;2022-11-15T05:12:24;98637.0;;;3.55;85.66
23361;BME280;11852;50.082;18.554;2022-11-15T05:13:28;98637.5;;;3.54;85.63
23361;BME280;11852;50.082;18.554;2022-11-15T05:14:33;98637.0;;;3.56;85.52
23361;BME280;11852;50.082;18.554;2022-11-15T05:15:37;98637.0;;;3.52;85.57
23361;BME280;11852;50.082;18.554;2022-11-15T05:16:42;98636.0;;;3.52;85.46
23361;BME280;11852;50.082;18.554;2022-11-15T05:17:46;98633.5;;;3.53;85.47
23361;BME280;11852;50.082;18.554;2022-11-15T05:18:51;98631.0;;;3.5;85.54
23361;BME280;11852;50.082;18.554;2022-11-15T05:19:55;98629.51;;;3.49;85.57
23361;BME280;11852;50.082;18.554;2022-11-15T05:21:03;98631.0;;;3.48;85.6
23361;BME280;11852;50.082;18.554;2022-11-15T05:22:06;98627.0;;;3.51;85.51
23361;BME280;11852;50.082;18.554;2022-11-15T05:23:11;98627.0;;;3.5;85.5
23361;BME280;11852;50.082;18.554;2022-11-15T05:24:16;98624.5;;;3.48;85.49
23361;BME280;11852;50.082;18.554;2022-11-15T05:25:21;98620.49;;;3.46;85.57
23361;BME280;11852;50.082;18.554;2022-11-15T05:26:25;98617.51;;;3.49;85.44
23361;BME280;11852;50.082;18.554;2022-11-15T05:27:29;98620.0;;;3.47;85.54
23361;BME280;11852;50.082;18.554;2022-11-15T05:28:34;98618.5;;;3.46;85.51
23361;BME280;11852;50.082;18.554;2022-11-15T05:29:39;98618.5;;;3.46;85.41
23361;BME280;11852;50.082;18.554;2022-11-15T05:30:43;98615.5;;;3.42;85.49
23361;BME280;11852;50.082;18.554;2022-11-15T05:31:48;98617.01;;;3.3;85.62
23361;BME280;11852;50.082;18.554;2022-11-15T05:32:52;98618.01;;;3.29;85.53
23361;BME280;11852;50.082;18.554;2022-11-15T05:34:04;98616.5;;;3.3;85.51
23361;BME280;11852;50.082;18.554;2022-11-15T05:35:01;98616.0;;;3.33;85.6
23361;BME280;11852;50.082;18.554;2022-11-15T05:37:20;98614.0;;;3.23;85.69
23361;BME280;11852;50.082;18.554;2022-11-15T05:38:25;98612.5;;;3.2;85.69
23361;BME280;11852;50.082;18.554;2022-11-15T05:39:30;98610.5;;;3.12;85.93
23361;BME280;11852;50.082;18.554;2022-11-15T05:40:34;98607.99;;;2.98;86.26
23361;BME280;11852;50.082;18.554;2022-11-15T05:41:43;98607.99;;;2.97;86.23
23361;BME280;11852;50.082;18.554;2022-11-15T05:42:44;98609.5;;;3.0;86.19
23361;BME280;11852;50.082;18.554;2022-11-15T05:43:48;98606.5;;;3.03;86.2
23361;BME280;11852;50.082;18.554;2022-11-15T05:44:52;98604.51;;;3.04;86.26
23361;BME280;11852;50.082;18.554;2022-11-15T05:45:57;98604.0;;;3.08;86.17
23361;BME280;11852;50.082;18.554;2022-11-15T05:47:01;98610.0;;;3.12;86.21
23361;BME280;11852;50.082;18.554;2022-11-15T05:48:06;98608.5;;;3.12;86.24
23361;BME280;11852;50.082;18.554;2022-11-15T05:49:12;98608.5;;;3.13;86.12
23361;BME280;11852;50.082;18.554;2022-11-15T05:50:16;98608.5;;;3.15;86.08
23361;BME280;11852;50.082;18.554;2022-11-15T05:51:20;98606.5;;;3.15;86.07
23361;BME280;11852;50.082;18.554;2022-11-15T05:52:25;98606.99;;;3.13;86.12
23361;BME280;11852;50.082;18.554;2022-11-15T05:53:29;98604.0;;;3.13;86.04
23361;BME280;11852;50.082;18.554;2022-11-15T05:54:33;98606.5;;;3.05;86.25
23361;BME280;11852;50.082;18.554;2022-11-15T05:55:38;98604.0;;;3.06;86.26
23361;BME280;11852;50.082;18.554;2022-11-15T05:56:43;98603.0;;;3.06;86.24
23361;BME280;11852;50.082;18.554;2022-11-15T05:57:47;98603.0;;;3.02;86.35
23361;BME280;11852;50.082;18.554;2022-11-15T05:58:53;98603.0;;;3.03;86.29
23361;BME280;11852;50.082;18.554;2022-11-15T05:59:56;98601.0;;;3.07;86.21
23361;BME280;11852;50.082;18.554;2022-11-15T06:01:01;98603.0;;;3.06;86.29
23361;BME280;11852;50.082;18.554;2022-11-15T06:02:05;98598.5;;;3.09;86.22
23361;BME280;11852;50.082;18.554;2022-11-15T06:03:10;98599.5;;;3.09;86.26
23361;BME280;11852;50.082;18.554;2022-11-15T06:04:14;98601.5;;;3.01;86.49
23361;BME280;11852;50.082;18.554;2022-11-15T06:05:18;98602.0;;;3.03;86.4
23361;BME280;11852;50.082;18.554;2022-11-15T06:06:23;98599.5;;;3.08;86.25
23361;BME280;11852;50.082;18.554;2022-11-15T06:07:28;98603.5;;;3.12;86.23
23361;BME280;11852;50.082;18.554;2022-11-15T06:08:32;98599.5;;;3.14;86.19
23361;BME280;11852;50.082;18.554;2022-11-15T06:09:37;98600.5;;;3.13;86.28
23361;BME280;11852;50.082;18.554;2022-11-15T06:10:41;98600.5;;;3.16;86.18
23361;BME280;11852;50.082;18.554;2022-11-15T06:11:46;98599.0;;;3.2;86.07
23361;BME280;11852;50.082;18.554;2022-11-15T06:12:59;98597.0;;;3.18;86.12
23361;BME280;11852;50.082;18.554;2022-11-15T06:14:03;98596.0;;;3.21;86.03
23361;BME280;11852;50.082;18.554;2022-11-15T06:15:07;98595.5;;;3.26;86.04
23361;BME280;11852;50.082;18.554;2022-11-15T06:16:12;98596.0;;;3.28;86.06
23361;BME280;11852;50.082;18.554;2022-11-15T06:17:16;98596.5;;;3.34;85.94
23361;BME280;11852;50.082;18.554;2022-11-15T06:18:21;98595.5;;;3.33;85.97
23361;BME280;11852;50.082;18.554;2022-11-15T06:19:26;98592.01;;;3.35;85.86
23361;BME280;11852;50.082;18.554;2022-11-15T06:20:31;98594.5;;;3.38;85.82
23361;BME280;11852;50.082;18.554;2022-11-15T06:21:35;98592.51;;;3.41;85.79
23361;BME280;11852;50.082;18.554;2022-11-15T06:22:40;98593.5;;;3.42;85.72
23361;BME280;11852;50.082;18.554;2022-11-15T06:23:44;98591.5;;;3.44;85.67
23361;BME280;11852;50.082;18.554;2022-11-15T06:24:49;98591.0;;;3.47;85.64
23361;BME280;11852;50.082;18.554;2022-11-15T06:25:57;98593.01;;;3.49;85.57
23361;BME280;11852;50.082;18.554;2022-11-15T06:26:58;98593.5;;;3.5;85.83
23361;BME280;11852;50.082;18.554;2022-11-15T06:28:03;98596.0;;;3.54;85.86
23361;BME280;11852;50.082;18.554;2022-11-15T06:29:07;98593.5;;;3.59;85.87